createdAt,value
2023-01-11T00:01:06.598Z,0.75
2023-01-11T00:03:31.095Z,0.80
2023-01-11T00:05:58.493Z,0.80
2023-01-11T00:08:24.413Z,0.93
2023-01-11T00:10:47.835Z,0.90
2023-01-11T00:13:11.088Z,0.90
2023-01-11T00:15:36.307Z,0.95
2023-01-11T00:17:59.790Z,0.80
2023-01-11T00:20:23.124Z,0.73
2023-01-11T00:22:46.469Z,0.90
2023-01-11T00:25:11.597Z,0.85
2023-01-11T00:27:35.235Z,0.88
2023-01-11T00:29:58.509Z,0.90
2023-01-11T00:32:21.780Z,0.60
2023-01-11T00:34:45.028Z,0.80
2023-01-11T00:37:08.255Z,1.00
2023-01-11T00:39:31.718Z,1.20
2023-01-11T00:42:13.641Z,1.50
2023-01-11T00:44:54.451Z,1.88
2023-01-11T00:47:36.149Z,2.95
2023-01-11T00:49:59.563Z,4.68
2023-01-11T00:52:22.914Z,5.53
2023-01-11T00:54:46.186Z,6.07
2023-01-11T00:57:11.597Z,7.03
2023-01-11T00:59:35.048Z,6.30
2023-01-11T01:01:58.328Z,5.95
2023-01-11T01:04:21.655Z,5.47
2023-01-11T01:06:45.083Z,4.30
2023-01-11T01:09:08.397Z,3.85
2023-01-11T01:11:31.647Z,3.40
2023-01-11T01:14:13.834Z,3.22
2023-01-11T01:16:37.673Z,3.35
2023-01-11T01:19:01.232Z,2.50
2023-01-11T01:21:24.921Z,1.40
2023-01-11T01:23:48.145Z,1.83
2023-01-11T01:26:11.450Z,1.52
2023-01-11T01:28:34.856Z,1.60
2023-01-11T01:30:59.692Z,1.65
2023-01-11T01:33:23.167Z,1.55
2023-01-11T01:35:46.727Z,1.90
2023-01-11T01:38:09.977Z,2.35
2023-01-11T01:40:33.295Z,1.98
2023-01-11T01:42:56.588Z,2.28
2023-01-11T01:45:25.536Z,1.95
2023-01-11T01:47:54.956Z,1.50
2023-01-11T01:50:24.434Z,1.23
2023-01-11T01:52:51.401Z,0.95
2023-01-11T01:55:24.492Z,0.95
2023-01-11T01:57:48.251Z,0.80
2023-01-11T02:00:13.168Z,0.93
2023-01-11T02:02:39.467Z,0.95
2023-01-11T02:05:04.808Z,0.90
2023-01-11T02:07:32.949Z,0.98
2023-01-11T02:10:02.278Z,1.00
2023-01-11T02:12:30.069Z,1.30
2023-01-11T02:14:55.548Z,1.20
2023-01-11T02:17:18.977Z,1.58
2023-01-11T02:19:59.015Z,1.65
2023-01-11T02:23:12.684Z,1.25
2023-01-11T02:26:38.717Z,1.30
2023-01-11T02:29:11.993Z,1.40
2023-01-11T02:31:41.308Z,1.35
2023-01-11T02:34:21.883Z,1.08
2023-01-11T02:37:01.936Z,1.20
2023-01-11T02:39:35.931Z,1.20
2023-01-11T02:42:26.357Z,1.20
2023-01-11T02:45:03.472Z,1.10
2023-01-11T02:47:34.299Z,1.13
2023-01-11T02:50:05.247Z,0.80
2023-01-11T02:52:36.682Z,0.82
2023-01-11T02:55:02.364Z,0.80
2023-01-11T02:57:29.396Z,0.68
2023-01-11T02:59:57.888Z,0.50
2023-01-11T03:02:21.242Z,0.70
2023-01-11T03:04:45.241Z,0.60
2023-01-11T03:07:33.604Z,0.70
2023-01-11T03:10:12.422Z,0.65
2023-01-11T03:12:57.641Z,0.60
2023-01-11T03:15:48.473Z,0.60
2023-01-11T03:18:29.239Z,0.52
2023-01-11T03:21:00.871Z,0.60
2023-01-11T03:23:33.327Z,0.45
2023-01-11T03:26:01.919Z,0.60
2023-01-11T03:28:36.801Z,0.55
2023-01-11T03:31:06.723Z,0.70
2023-01-11T03:33:38.837Z,0.70
2023-01-11T03:36:12.435Z,0.50
2023-01-11T03:38:42.552Z,0.57
2023-01-11T03:41:10.440Z,0.40
2023-01-11T03:43:37.989Z,0.60
2023-01-11T03:46:07.918Z,0.50
2023-01-11T03:48:37.508Z,0.50
2023-01-11T03:51:02.847Z,0.50
2023-01-11T03:53:28.935Z,0.50
2023-01-11T03:55:56.915Z,0.57
2023-01-11T03:58:20.259Z,0.93
2023-01-11T04:00:43.991Z,0.80
2023-01-11T04:03:09.707Z,0.60
2023-01-11T04:05:34.044Z,1.27
2023-01-11T04:07:57.462Z,0.80
2023-01-11T04:10:20.761Z,1.00
2023-01-11T04:12:44.034Z,0.90
2023-01-11T04:15:09.489Z,0.57
2023-01-11T04:17:32.924Z,0.80
2023-01-11T04:19:57.574Z,0.70
2023-01-11T04:22:20.915Z,0.63
2023-01-11T04:24:44.181Z,0.80
2023-01-11T04:27:07.541Z,0.57
2023-01-11T04:29:30.822Z,0.50
2023-01-11T04:31:54.101Z,0.50
2023-01-11T04:34:17.610Z,0.50
2023-01-11T04:36:42.897Z,0.40
2023-01-11T04:39:10.604Z,0.70
2023-01-11T04:41:51.427Z,0.80
2023-01-11T04:44:14.884Z,0.40
2023-01-11T04:46:38.260Z,0.50
2023-01-11T04:49:01.708Z,0.60
2023-01-11T04:51:25.106Z,0.50
2023-01-11T04:53:50.536Z,0.60
2023-01-11T04:56:13.802Z,0.57
2023-01-11T04:58:38.277Z,0.52
2023-01-11T05:01:02.095Z,0.50
2023-01-11T05:03:25.548Z,0.60
2023-01-11T05:05:57.163Z,0.55
2023-01-11T05:08:20.471Z,0.60
2023-01-11T05:10:45.151Z,0.45
2023-01-11T05:13:08.505Z,0.70
2023-01-11T05:15:31.808Z,0.40
2023-01-11T05:17:55.324Z,0.50
2023-01-11T05:20:18.906Z,0.50
2023-01-11T05:22:42.156Z,0.50
2023-01-11T05:25:06.768Z,0.50
2023-01-11T05:27:31.389Z,0.40
2023-01-11T05:29:55.097Z,0.52
2023-01-11T05:32:18.328Z,0.50
2023-01-11T05:34:41.642Z,0.32
2023-01-11T05:37:04.967Z,0.70
2023-01-11T05:39:28.454Z,0.47
2023-01-11T05:41:51.720Z,0.40
2023-01-11T05:44:33.960Z,0.47
2023-01-11T05:46:57.399Z,0.55
2023-01-11T05:49:20.868Z,0.50
2023-01-11T05:51:45.103Z,0.40
2023-01-11T05:54:12.757Z,0.50
2023-01-11T05:56:36.171Z,0.60
2023-01-11T05:58:59.681Z,0.50
2023-01-11T06:01:26.407Z,0.77
2023-01-11T06:03:49.962Z,0.70
2023-01-11T06:06:13.399Z,0.80
2023-01-11T06:08:36.644Z,0.80
2023-01-11T06:11:00.525Z,0.60
2023-01-11T06:13:30.372Z,0.65
2023-01-11T06:15:53.999Z,0.68
2023-01-11T06:18:18.779Z,0.50
2023-01-11T06:20:42.176Z,0.65
2023-01-11T06:23:05.617Z,0.57
2023-01-11T06:25:30.329Z,0.60
2023-01-11T06:27:54.891Z,0.80
2023-01-11T06:30:20.379Z,0.70
2023-01-11T06:32:43.664Z,0.80
2023-01-11T06:35:09.437Z,0.70
2023-01-11T06:37:32.768Z,0.70
2023-01-11T06:39:56.181Z,0.90
2023-01-11T06:42:19.494Z,0.43
2023-01-11T06:44:42.743Z,0.50
2023-01-11T06:47:06.191Z,0.50
2023-01-11T06:49:29.448Z,0.60
2023-01-11T06:51:54.100Z,0.60
2023-01-11T06:54:21.908Z,0.80
2023-01-11T06:56:45.225Z,0.80
2023-01-11T06:59:08.625Z,0.82
2023-01-11T07:01:32.391Z,0.60
2023-01-11T07:03:55.858Z,0.65
2023-01-11T07:06:19.231Z,0.75
2023-01-11T07:08:43.803Z,0.50
2023-01-11T07:11:07.398Z,0.60
2023-01-11T07:13:30.701Z,0.80
2023-01-11T07:15:54.221Z,0.80
2023-01-11T07:18:18.490Z,0.70
2023-01-11T07:20:42.105Z,1.08
2023-01-11T07:23:05.446Z,1.00
2023-01-11T07:25:31.370Z,1.20
2023-01-11T07:27:58.850Z,1.30
2023-01-11T07:30:22.422Z,1.70
2023-01-11T07:32:45.659Z,1.70
2023-01-11T07:35:10.303Z,2.03
2023-01-11T07:37:34.181Z,1.95
2023-01-11T07:39:57.490Z,1.88
2023-01-11T07:42:54.179Z,2.28
2023-01-11T07:45:17.551Z,2.28
2023-01-11T07:47:41.451Z,2.45
2023-01-11T07:50:06.058Z,2.47
2023-01-11T07:52:29.312Z,2.20
2023-01-11T07:54:52.628Z,2.17
2023-01-11T07:57:15.836Z,2.40
2023-01-11T07:59:40.506Z,2.40
2023-01-11T08:02:03.866Z,2.25
2023-01-11T08:04:27.548Z,2.53
2023-01-11T08:06:50.773Z,2.70
2023-01-11T08:09:14.272Z,2.97
2023-01-11T08:11:55.417Z,3.35
2023-01-11T08:14:36.111Z,3.22
2023-01-11T08:17:00.887Z,3.38
2023-01-11T08:19:24.276Z,3.03
2023-01-11T08:21:47.656Z,3.50
2023-01-11T08:24:11.187Z,3.05
2023-01-11T08:26:34.490Z,3.58
2023-01-11T08:28:57.867Z,3.72
2023-01-11T08:31:21.447Z,3.67
2023-01-11T08:33:46.336Z,3.88
2023-01-11T08:36:12.489Z,4.10
2023-01-11T08:38:36.176Z,3.45
2023-01-11T08:40:59.519Z,3.83
2023-01-11T08:43:22.725Z,3.38
2023-01-11T08:45:46.070Z,3.17
2023-01-11T08:48:09.438Z,4.05
2023-01-11T08:50:34.088Z,3.40
2023-01-11T08:52:57.405Z,3.63
2023-01-11T08:55:21.112Z,3.63
2023-01-11T08:57:44.414Z,4.40
2023-01-11T09:00:10.308Z,4.30
2023-01-11T09:02:33.793Z,4.25
2023-01-11T09:04:57.272Z,3.58
2023-01-11T09:07:22.010Z,4.38
2023-01-11T09:09:45.272Z,4.55
2023-01-11T09:12:08.912Z,5.15
2023-01-11T09:14:32.253Z,4.45
2023-01-11T09:16:56.362Z,4.90
2023-01-11T09:19:19.899Z,3.45
2023-01-11T09:21:43.346Z,4.22
2023-01-11T09:24:08.799Z,3.90
2023-01-11T09:26:32.380Z,4.78
2023-01-11T09:28:55.658Z,4.90
2023-01-11T09:31:19.177Z,4.90
2023-01-11T09:33:42.534Z,4.20
2023-01-11T09:36:06.569Z,4.35
2023-01-11T09:38:30.925Z,4.30
2023-01-11T09:41:04.493Z,4.82
2023-01-11T09:43:30.333Z,4.88
2023-01-11T09:45:56.020Z,4.43
2023-01-11T09:48:28.794Z,4.65
2023-01-11T09:50:52.217Z,4.93
2023-01-11T09:53:27.235Z,4.32
2023-01-11T09:55:54.161Z,4.45
2023-01-11T09:58:43.024Z,4.18
2023-01-11T10:01:14.714Z,4.38
2023-01-11T10:04:41.750Z,4.60
2023-01-11T10:07:22.958Z,4.43
2023-01-11T10:18:27.916Z,4.53
2023-01-11T10:19:31.503Z,4.40
2023-01-11T10:21:54.717Z,4.10
2023-01-11T10:24:25.811Z,4.55
2023-01-11T10:26:52.018Z,3.78
2023-01-11T10:29:39.807Z,3.92
2023-01-11T10:32:18.752Z,5.07
2023-01-11T10:35:13.729Z,4.32
2023-01-11T10:37:59.664Z,3.97
2023-01-11T10:40:40.022Z,4.20
2023-01-11T10:43:14.127Z,4.78
2023-01-11T10:45:43.450Z,4.22
2023-01-11T10:48:16.463Z,4.95
2023-01-11T10:50:48.182Z,4.72
2023-01-11T10:53:20.600Z,4.57
2023-01-11T10:55:52.176Z,5.05
2023-01-11T10:58:37.985Z,5.20
2023-01-11T11:01:17.028Z,4.70
2023-01-11T11:03:54.982Z,4.90
2023-01-11T11:06:32.807Z,5.30
2023-01-11T11:09:05.965Z,4.97
2023-01-11T11:11:37.969Z,4.80
2023-01-11T11:14:10.403Z,5.07
2023-01-11T11:17:00.042Z,5.40
2023-01-11T11:19:31.495Z,5.43
2023-01-11T11:21:54.741Z,4.95
2023-01-11T11:24:27.782Z,5.25
2023-01-11T11:27:17.576Z,4.95
2023-01-11T11:29:50.480Z,4.07
2023-01-11T11:32:24.307Z,4.25
2023-01-11T11:34:50.419Z,4.80
2023-01-11T11:37:26.601Z,5.10
2023-01-11T11:39:52.132Z,4.13
2023-01-11T11:42:18.369Z,4.38
2023-01-11T11:44:41.703Z,4.88
2023-01-11T11:47:07.546Z,4.55
2023-01-11T11:49:32.690Z,5.22
2023-01-11T11:51:58.347Z,4.65
2023-01-11T11:54:28.001Z,4.38
2023-01-11T11:56:51.700Z,4.15
2023-01-11T11:59:19.444Z,4.10
2023-01-11T12:01:47.142Z,4.53
2023-01-11T12:04:16.583Z,4.47
2023-01-11T12:06:41.654Z,4.10
2023-01-11T12:09:13.920Z,4.63
2023-01-11T12:11:42.157Z,3.58
2023-01-11T12:14:19.786Z,4.85
2023-01-11T12:16:45.428Z,4.00
2023-01-11T12:19:29.266Z,3.58
2023-01-11T12:21:53.001Z,3.95
2023-01-11T12:24:19.681Z,3.80
2023-01-11T12:26:59.375Z,4.15
2023-01-11T12:30:08.689Z,4.32
2023-01-11T12:33:14.887Z,4.88
2023-01-11T12:35:51.552Z,4.15
2023-01-11T12:38:44.072Z,4.50
2023-01-11T12:41:50.182Z,4.72
2023-01-11T12:44:21.568Z,3.72
2023-01-11T12:46:59.411Z,5.00
2023-01-11T12:49:35.946Z,5.22
2023-01-11T12:52:27.710Z,3.75
2023-01-11T12:55:21.638Z,4.78
2023-01-11T12:58:01.027Z,4.70
2023-01-11T13:00:39.906Z,3.75
2023-01-11T13:03:34.201Z,3.50
2023-01-11T13:06:08.153Z,5.32
2023-01-11T13:08:48.919Z,4.22
2023-01-11T13:11:35.912Z,3.58
2023-01-11T13:14:26.968Z,4.40
2023-01-11T13:17:01.753Z,4.00
2023-01-11T13:19:32.772Z,3.63
2023-01-11T13:21:59.385Z,4.65
2023-01-11T13:24:29.890Z,4.30
2023-01-11T13:26:56.258Z,4.85
2023-01-11T13:29:28.904Z,3.35
2023-01-11T13:31:54.337Z,3.63
2023-01-11T13:34:26.047Z,4.35
2023-01-11T13:36:55.715Z,3.80
2023-01-11T13:39:28.371Z,3.88
2023-01-11T13:41:56.533Z,4.13
2023-01-11T13:44:26.196Z,3.53
2023-01-11T13:47:01.733Z,3.50
2023-01-11T13:49:49.778Z,3.78
2023-01-11T13:52:15.432Z,3.60
2023-01-11T13:54:49.137Z,4.93
2023-01-11T13:57:23.610Z,3.83
2023-01-11T13:59:54.832Z,4.00
2023-01-11T14:02:25.495Z,3.47
2023-01-11T14:04:55.341Z,4.40
2023-01-11T14:07:36.591Z,4.00
2023-01-11T14:10:24.786Z,4.25
2023-01-11T14:13:06.668Z,3.58
2023-01-11T14:15:38.038Z,3.63
2023-01-11T14:18:19.623Z,4.10
2023-01-11T14:20:58.158Z,4.20
2023-01-11T14:23:25.198Z,3.95
2023-01-11T14:26:18.771Z,3.30
2023-01-11T14:29:00.083Z,3.97
2023-01-11T14:32:11.110Z,4.22
2023-01-11T14:35:03.952Z,3.90
2023-01-11T14:38:13.487Z,4.05
2023-01-11T14:40:57.055Z,3.95
2023-01-11T14:43:57.179Z,4.50
2023-01-11T14:46:51.868Z,3.53
2023-01-11T14:49:32.796Z,3.40
2023-01-11T14:52:00.140Z,3.92
2023-01-11T14:54:28.136Z,4.13
2023-01-11T14:56:55.675Z,4.32
2023-01-11T14:59:43.036Z,3.45
2023-01-11T15:02:27.601Z,4.05
2023-01-11T15:05:36.324Z,3.72
2023-01-11T15:08:21.020Z,4.03
2023-01-11T15:10:57.813Z,3.83
2023-01-11T15:13:25.484Z,3.92
2023-01-11T15:16:07.065Z,4.25
2023-01-11T15:18:31.646Z,3.40
2023-01-11T15:20:59.102Z,4.10
2023-01-11T15:23:23.381Z,3.63
2023-01-11T15:25:49.346Z,3.83
2023-01-11T15:28:46.365Z,3.58
2023-01-11T15:31:39.200Z,3.78
2023-01-11T15:34:06.456Z,4.22
2023-01-11T15:37:09.231Z,3.75
2023-01-11T15:39:40.108Z,4.35
2023-01-11T15:42:29.609Z,3.75
2023-01-11T15:45:25.580Z,4.20
2023-01-11T15:48:12.384Z,4.35
2023-01-11T15:51:15.545Z,3.97
2023-01-11T15:54:27.733Z,4.43
2023-01-11T15:57:39.807Z,3.92
2023-01-11T16:00:41.611Z,4.05
2023-01-11T16:03:29.403Z,3.78
2023-01-11T16:06:03.959Z,5.30
2023-01-11T16:08:33.872Z,5.15
2023-01-11T16:11:20.459Z,4.50
2023-01-11T16:14:04.093Z,4.32
2023-01-11T16:16:32.004Z,4.40
2023-01-11T16:19:00.130Z,4.40
2023-01-11T16:21:34.625Z,3.78
2023-01-11T16:23:58.323Z,3.83
2023-01-11T16:26:23.566Z,4.88
2023-01-11T16:28:52.797Z,4.07
2023-01-11T16:31:16.168Z,3.85
2023-01-11T16:33:39.458Z,3.53
2023-01-11T16:36:14.160Z,3.20
2023-01-11T16:38:48.049Z,3.35
2023-01-11T16:41:15.403Z,3.38
2023-01-11T16:43:49.012Z,2.92
2023-01-11T16:47:07.030Z,3.35
2023-01-11T16:49:30.489Z,3.10
2023-01-11T16:51:54.459Z,2.92
2023-01-11T16:54:24.981Z,3.45
2023-01-11T16:56:50.363Z,2.88
2023-01-11T16:59:26.363Z,3.20
2023-01-11T17:01:52.615Z,3.85
2023-01-11T17:04:29.328Z,3.60
2023-01-11T17:06:52.719Z,3.05
2023-01-11T17:09:22.069Z,3.10
2023-01-11T17:11:48.630Z,3.28
2023-01-11T17:14:53.518Z,2.83
2023-01-11T17:17:17.603Z,4.05
2023-01-11T17:19:46.229Z,3.00
2023-01-11T17:22:18.638Z,2.53
2023-01-11T17:24:50.873Z,2.72
2023-01-11T17:27:22.124Z,3.40
2023-01-11T17:29:48.251Z,3.40
2023-01-11T17:32:19.878Z,2.75
2023-01-11T17:34:44.053Z,3.47
2023-01-11T17:37:10.880Z,3.55
2023-01-11T17:39:36.813Z,3.00
2023-01-11T17:42:20.125Z,3.38
2023-01-11T17:45:03.398Z,3.13
2023-01-11T17:47:27.224Z,3.50
2023-01-11T17:49:52.558Z,3.00
2023-01-11T17:52:23.219Z,3.45
2023-01-11T17:54:46.726Z,3.30
2023-01-11T17:57:11.717Z,3.78
2023-01-11T17:59:35.114Z,3.60
2023-01-11T18:02:03.922Z,3.30
2023-01-11T18:04:29.103Z,3.88
2023-01-11T18:06:56.547Z,3.30
2023-01-11T18:09:26.592Z,3.17
2023-01-11T18:11:51.792Z,3.22
2023-01-11T18:14:21.187Z,3.90
2023-01-11T18:17:00.290Z,3.50
2023-01-11T18:19:32.410Z,3.60
2023-01-11T18:21:56.371Z,3.28
2023-01-11T18:24:34.814Z,2.80
2023-01-11T18:27:19.564Z,3.53
2023-01-11T18:29:53.104Z,3.17
2023-01-11T18:32:18.649Z,3.25
2023-01-11T18:34:44.144Z,2.90
2023-01-11T18:37:07.714Z,3.47
2023-01-11T18:39:31.027Z,3.30
2023-01-11T18:42:10.859Z,4.20
2023-01-11T18:44:35.190Z,3.28
2023-01-11T18:46:58.413Z,3.83
2023-01-11T18:49:23.657Z,3.55
2023-01-11T18:51:46.888Z,3.63
2023-01-11T18:54:16.364Z,3.45
2023-01-11T18:56:39.793Z,3.40
2023-01-11T18:59:03.388Z,3.55
2023-01-11T19:01:26.809Z,2.72
2023-01-11T19:03:50.429Z,3.78
2023-01-11T19:06:15.933Z,3.58
2023-01-11T19:08:39.173Z,3.90
2023-01-11T19:11:03.999Z,4.15
2023-01-11T19:13:27.392Z,4.10
2023-01-11T19:15:51.796Z,3.40
2023-01-11T19:18:15.943Z,3.78
2023-01-11T19:20:40.831Z,3.10
2023-01-11T19:23:05.529Z,3.47
2023-01-11T19:25:29.077Z,3.58
2023-01-11T19:27:54.813Z,3.25
2023-01-11T19:30:19.065Z,4.03
2023-01-11T19:32:42.337Z,3.15
2023-01-11T19:35:08.225Z,3.80
2023-01-11T19:37:32.454Z,3.60
2023-01-11T19:39:57.396Z,3.55
2023-01-11T19:42:21.106Z,3.08
2023-01-11T19:44:44.478Z,3.15
2023-01-11T19:47:12.748Z,3.70
2023-01-11T19:49:36.520Z,3.13
2023-01-11T19:52:00.609Z,3.67
2023-01-11T19:54:25.075Z,3.85
2023-01-11T19:56:50.110Z,4.03
2023-01-11T19:59:13.445Z,3.67
2023-01-11T20:01:36.776Z,3.60
2023-01-11T20:04:00.773Z,4.28
2023-01-11T20:06:24.148Z,4.20
2023-01-11T20:08:47.548Z,3.28
2023-01-11T20:11:14.297Z,3.35
2023-01-11T20:13:39.112Z,4.28
2023-01-11T20:16:07.301Z,3.08
2023-01-11T20:18:30.701Z,3.67
2023-01-11T20:20:57.040Z,3.45
2023-01-11T20:23:20.459Z,3.58
2023-01-11T20:25:43.823Z,4.18
2023-01-11T20:28:07.140Z,3.65
2023-01-11T20:30:31.746Z,2.90
2023-01-11T20:32:55.079Z,3.55
2023-01-11T20:35:18.636Z,3.58
2023-01-11T20:37:41.946Z,3.60
2023-01-11T20:40:07.031Z,3.05
2023-01-11T20:42:31.664Z,3.33
2023-01-11T20:44:55.174Z,3.55
2023-01-11T20:47:19.938Z,3.20
2023-01-11T20:49:43.372Z,3.38
2023-01-11T20:52:07.132Z,4.18
2023-01-11T20:54:30.514Z,3.75
2023-01-11T20:56:54.059Z,3.60
2023-01-11T20:59:20.097Z,3.10
2023-01-11T21:01:44.198Z,3.72
2023-01-11T21:04:11.533Z,3.78
2023-01-11T21:06:37.501Z,3.42
2023-01-11T21:09:02.981Z,3.35
2023-01-11T21:11:27.074Z,3.72
2023-01-11T21:13:53.545Z,3.30
2023-01-11T21:16:17.974Z,3.90
2023-01-11T21:18:43.793Z,3.45
2023-01-11T21:21:14.114Z,3.58
2023-01-11T21:23:37.395Z,3.22
2023-01-11T21:26:00.622Z,3.05
2023-01-11T21:28:24.084Z,3.10
2023-01-11T21:30:47.342Z,3.00
2023-01-11T21:33:10.558Z,3.55
2023-01-11T21:35:35.348Z,3.65
2023-01-11T21:38:00.003Z,2.92
2023-01-11T21:40:23.252Z,3.10
2023-01-11T21:42:46.824Z,2.80
2023-01-11T21:45:12.085Z,3.33
2023-01-11T21:47:35.463Z,3.60
2023-01-11T21:49:59.561Z,3.25
2023-01-11T21:52:22.843Z,3.17
2023-01-11T21:54:48.405Z,2.90
2023-01-11T21:57:11.649Z,3.50
2023-01-11T21:59:35.769Z,3.63
2023-01-11T22:01:59.106Z,4.13
2023-01-11T22:04:22.852Z,3.60
2023-01-11T22:06:51.437Z,3.88
2023-01-11T22:09:15.396Z,3.50
2023-01-11T22:11:40.664Z,3.33
2023-01-11T22:14:08.450Z,3.45
2023-01-11T22:16:33.661Z,4.03
2023-01-11T22:18:57.003Z,3.47
2023-01-11T22:21:21.569Z,4.13
2023-01-11T22:23:45.795Z,3.17
2023-01-11T22:26:12.223Z,3.17
2023-01-11T22:28:57.201Z,3.40
2023-01-11T22:31:20.686Z,4.22
2023-01-11T22:33:44.054Z,3.13
2023-01-11T22:36:09.409Z,3.70
2023-01-11T22:38:33.746Z,4.50
2023-01-11T22:41:01.129Z,3.55
2023-01-11T22:43:24.478Z,3.55
2023-01-11T22:45:58.617Z,3.80
2023-01-11T22:48:21.959Z,4.13
2023-01-11T22:50:45.177Z,3.80
2023-01-11T22:53:08.425Z,4.22
2023-01-11T22:55:34.241Z,3.05
2023-01-11T22:57:58.140Z,4.38
2023-01-11T23:00:22.189Z,3.40
2023-01-11T23:02:47.239Z,3.60
2023-01-11T23:05:10.780Z,3.17
2023-01-11T23:07:34.508Z,2.90
2023-01-11T23:09:57.863Z,3.83
2023-01-11T23:12:50.226Z,4.18
2023-01-11T23:15:13.947Z,4.05
2023-01-11T23:17:37.405Z,3.92
2023-01-11T23:20:02.136Z,4.22
2023-01-11T23:22:25.354Z,4.07
2023-01-11T23:24:48.751Z,3.95
2023-01-11T23:27:12.047Z,4.07
2023-01-11T23:29:35.580Z,3.80
2023-01-11T23:31:58.958Z,3.35
2023-01-11T23:34:22.277Z,3.85
2023-01-11T23:36:47.005Z,4.18
2023-01-11T23:39:14.283Z,4.40
2023-01-11T23:41:55.472Z,4.22
2023-01-11T23:44:19.743Z,4.13
2023-01-11T23:47:00.980Z,3.40
2023-01-11T23:49:25.191Z,4.05
2023-01-11T23:51:50.253Z,3.03
2023-01-11T23:54:14.397Z,3.40
2023-01-11T23:56:37.971Z,3.78
2023-01-11T23:59:02.035Z,3.42
